BWR225 EDDF-EETN
Flight info
| Callsign | BWR225 |
|---|---|
| Flight time | 1h 51m |
| Altitude | 37000 |
| Route | TOBAK8M/25C TOBAK N858 FEDZA Y172 MAG DCT RENKI L132 BODLA DCT PENOR DCT ANFEV DCT DIPEB DCT EVONA DCT TODNA DCT SULUN |
| Aircraft | A320/M-SDE3FGHIRWY/LB1 |
Departure
| Time | 2026-05-04 14:28 |
|---|---|
| Airport | Frankfurt Main Airport (EDDF) |
Arrival
| Time | 2026-05-04 16:20 |
|---|---|
| Airport | Lennart Meri Tallinn Airport (EETN) |
| Time | Latitude | Longitude | Altitude | Speed | Heading |
|---|---|---|---|---|---|
| 2026-05-04 13:47 | 50.04876 | 8.57156 | 363 ft | 0 kts | 160° |
| 2026-05-04 14:01 | 50.04877 | 8.57156 | 383 ft | 0 kts | 160° |
| 2026-05-04 14:19 | 50.04868 | 8.57130 | 358 ft | 9 kts | 256° |
| 2026-05-04 14:20 | 50.04783 | 8.57029 | 357 ft | 23 kts | 204° |
| 2026-05-04 14:20 | 50.04622 | 8.56919 | 359 ft | 26 kts | 198° |
| 2026-05-04 14:20 | 50.04449 | 8.56858 | 357 ft | 26 kts | 191° |
| 2026-05-04 14:21 | 50.04310 | 8.57041 | 359 ft | 18 kts | 70° |
| 2026-05-04 14:21 | 50.04350 | 8.57210 | 359 ft | 16 kts | 69° |
| 2026-05-04 14:21 | 50.04386 | 8.57359 | 362 ft | 14 kts | 69° |
| 2026-05-04 14:21 | 50.04419 | 8.57496 | 359 ft | 13 kts | 69° |
| 2026-05-04 14:22 | 50.04447 | 8.57617 | 361 ft | 11 kts | 71° |
| 2026-05-04 14:22 | 50.04483 | 8.57771 | 359 ft | 21 kts | 69° |
| 2026-05-04 14:22 | 50.04529 | 8.57962 | 362 ft | 9 kts | 69° |
| 2026-05-04 14:22 | 50.04548 | 8.58043 | 361 ft | 13 kts | 69° |
| 2026-05-04 14:23 | 50.04647 | 8.58452 | 364 ft | 19 kts | 70° |
| 2026-05-04 14:23 | 50.04604 | 8.58579 | 359 ft | 8 kts | 159° |
| 2026-05-04 14:23 | 50.04601 | 8.58581 | 359 ft | 0 kts | 159° |
| 2026-05-04 14:25 | 50.04572 | 8.58598 | 361 ft | 12 kts | 159° |
| 2026-05-04 14:26 | 50.04496 | 8.58607 | 366 ft | 11 kts | 221° |
| 2026-05-04 14:26 | 50.04480 | 8.58562 | 364 ft | 0 kts | 248° |
| 2026-05-04 14:27 | 50.04469 | 8.58515 | 366 ft | 24 kts | 251° |
| 2026-05-04 14:28 | 50.04320 | 8.57890 | 362 ft | 96 kts | 250° |
| 2026-05-04 14:28 | 50.04016 | 8.56635 | 360 ft | 150 kts | 249° |
| 2026-05-04 14:28 | 50.03625 | 8.55014 | 786 ft | 163 kts | 248° |
| 2026-05-04 14:28 | 50.03214 | 8.53328 | 1437 ft | 170 kts | 249° |
| 2026-05-04 14:29 | 50.02050 | 8.49742 | 2469 ft | 197 kts | 224° |
| 2026-05-04 14:29 | 49.99472 | 8.48239 | 3744 ft | 204 kts | 195° |
| 2026-05-04 14:30 | 49.98077 | 8.47796 | 4347 ft | 206 kts | 194° |
| 2026-05-04 14:30 | 49.96654 | 8.47334 | 4954 ft | 211 kts | 196° |
| 2026-05-04 14:30 | 49.93689 | 8.46205 | 6053 ft | 236 kts | 197° |
| 2026-05-04 14:31 | 49.92079 | 8.45437 | 6785 ft | 242 kts | 203° |
| 2026-05-04 14:31 | 49.90124 | 8.41371 | 8463 ft | 256 kts | 259° |
| 2026-05-04 14:32 | 49.91587 | 8.36387 | 10097 ft | 279 kts | 326° |
| 2026-05-04 14:32 | 49.93411 | 8.35132 | 10549 ft | 299 kts | 338° |
| 2026-05-04 14:32 | 49.95425 | 8.33914 | 10845 ft | 322 kts | 336° |
| 2026-05-04 14:32 | 49.97572 | 8.32529 | 11104 ft | 346 kts | 335° |
| 2026-05-04 14:33 | 49.99067 | 8.31539 | 11236 ft | 361 kts | 335° |
| 2026-05-04 14:33 | 50.02366 | 8.29873 | 11439 ft | 393 kts | 347° |
| 2026-05-04 14:33 | 50.05145 | 8.29396 | 11718 ft | 409 kts | 359° |
| 2026-05-04 14:33 | 50.08006 | 8.29743 | 12284 ft | 416 kts | 9° |
| 2026-05-04 14:34 | 50.10813 | 8.30894 | 12901 ft | 419 kts | 19° |
| 2026-05-04 14:34 | 50.13584 | 8.32356 | 13544 ft | 422 kts | 19° |
| 2026-05-04 14:34 | 50.16375 | 8.33825 | 14131 ft | 425 kts | 19° |
| 2026-05-04 14:34 | 50.19194 | 8.35303 | 14669 ft | 429 kts | 19° |
| 2026-05-04 14:35 | 50.21072 | 8.36287 | 15007 ft | 431 kts | 19° |
| 2026-05-04 14:35 | 50.23926 | 8.37786 | 15509 ft | 435 kts | 19° |
| 2026-05-04 14:35 | 50.27630 | 8.40243 | 16137 ft | 440 kts | 33° |
| 2026-05-04 14:35 | 50.29971 | 8.43319 | 16600 ft | 442 kts | 50° |
| 2026-05-04 14:36 | 50.31758 | 8.47231 | 17072 ft | 443 kts | 58° |
| 2026-05-04 14:36 | 50.32894 | 8.49974 | 17414 ft | 446 kts | 59° |
| 2026-05-04 14:36 | 50.34556 | 8.54017 | 17927 ft | 449 kts | 58° |
| 2026-05-04 14:36 | 50.36248 | 8.58140 | 18382 ft | 452 kts | 58° |
| 2026-05-04 14:37 | 50.37955 | 8.62297 | 18778 ft | 455 kts | 58° |
| 2026-05-04 14:37 | 50.39676 | 8.66484 | 19157 ft | 458 kts | 58° |
| 2026-05-04 14:37 | 50.41410 | 8.70698 | 19617 ft | 462 kts | 58° |
| 2026-05-04 14:37 | 50.43160 | 8.74951 | 20066 ft | 466 kts | 58° |
| 2026-05-04 14:38 | 50.45497 | 8.80638 | 20541 ft | 470 kts | 58° |
| 2026-05-04 14:38 | 50.46695 | 8.83559 | 20778 ft | 472 kts | 58° |
| 2026-05-04 14:38 | 50.48476 | 8.87912 | 21130 ft | 475 kts | 58° |
| 2026-05-04 14:38 | 50.50268 | 8.92298 | 21480 ft | 478 kts | 58° |
| 2026-05-04 14:39 | 50.52066 | 8.96711 | 21822 ft | 481 kts | 58° |
| 2026-05-04 14:39 | 50.53850 | 9.01097 | 22163 ft | 484 kts | 58° |
| 2026-05-04 14:39 | 50.55665 | 9.05574 | 22490 ft | 487 kts | 59° |
| 2026-05-04 14:40 | 50.59320 | 9.14629 | 23182 ft | 493 kts | 59° |
| 2026-05-04 14:40 | 50.61165 | 9.19199 | 23506 ft | 496 kts | 59° |
| 2026-05-04 14:40 | 50.63018 | 9.23790 | 23764 ft | 498 kts | 59° |
| 2026-05-04 14:40 | 50.64878 | 9.28411 | 24025 ft | 501 kts | 59° |
| 2026-05-04 14:41 | 50.66748 | 9.33064 | 24281 ft | 503 kts | 59° |
| 2026-05-04 14:41 | 50.68619 | 9.37735 | 24514 ft | 505 kts | 59° |
| 2026-05-04 14:41 | 50.72381 | 9.47139 | 25093 ft | 507 kts | 58° |
| 2026-05-04 14:42 | 50.76138 | 9.56552 | 25840 ft | 506 kts | 59° |
| 2026-05-04 14:42 | 50.77984 | 9.61195 | 26199 ft | 506 kts | 59° |
| 2026-05-04 14:42 | 50.79846 | 9.65898 | 26590 ft | 505 kts | 59° |
| 2026-05-04 14:43 | 50.81705 | 9.70604 | 26961 ft | 505 kts | 59° |
| 2026-05-04 14:43 | 50.83562 | 9.75315 | 27337 ft | 504 kts | 59° |
| 2026-05-04 14:43 | 50.85418 | 9.80024 | 27739 ft | 503 kts | 59° |
| 2026-05-04 14:43 | 50.87270 | 9.84722 | 28119 ft | 503 kts | 59° |
| 2026-05-04 14:44 | 50.89122 | 9.89424 | 28512 ft | 503 kts | 59° |
| 2026-05-04 14:44 | 50.90967 | 9.94124 | 28912 ft | 502 kts | 59° |
| 2026-05-04 14:44 | 50.92806 | 9.98818 | 29334 ft | 501 kts | 59° |
| 2026-05-04 14:44 | 50.94641 | 10.03511 | 29733 ft | 501 kts | 59° |
| 2026-05-04 14:45 | 50.96469 | 10.08201 | 30122 ft | 500 kts | 59° |
| 2026-05-04 14:45 | 50.98268 | 10.12831 | 30457 ft | 500 kts | 59° |
| 2026-05-04 14:45 | 51.00090 | 10.17523 | 30798 ft | 499 kts | 59° |
| 2026-05-04 14:45 | 51.01909 | 10.22218 | 31130 ft | 499 kts | 59° |
| 2026-05-04 14:46 | 51.03726 | 10.26914 | 31463 ft | 498 kts | 59° |
| 2026-05-04 14:46 | 51.05693 | 10.31440 | 31790 ft | 498 kts | 51° |
| 2026-05-04 14:46 | 51.08036 | 10.35485 | 32106 ft | 497 kts | 41° |
| 2026-05-04 14:46 | 51.10709 | 10.38944 | 32452 ft | 494 kts | 33° |
| 2026-05-04 14:47 | 51.13570 | 10.41955 | 32787 ft | 493 kts | 31° |
| 2026-05-04 14:47 | 51.16437 | 10.44973 | 33108 ft | 493 kts | 31° |
| 2026-05-04 14:47 | 51.19252 | 10.47963 | 33441 ft | 493 kts | 31° |
| 2026-05-04 14:47 | 51.22099 | 10.50997 | 33780 ft | 492 kts | 31° |
| 2026-05-04 14:48 | 51.24945 | 10.54029 | 34108 ft | 491 kts | 31° |
| 2026-05-04 14:48 | 51.27778 | 10.57046 | 34450 ft | 489 kts | 31° |
| 2026-05-04 14:48 | 51.30605 | 10.60057 | 34772 ft | 488 kts | 31° |
| 2026-05-04 14:48 | 51.33424 | 10.63065 | 35075 ft | 487 kts | 31° |
| 2026-05-04 14:49 | 51.36241 | 10.66073 | 35335 ft | 487 kts | 31° |
| 2026-05-04 14:49 | 51.39045 | 10.69103 | 35597 ft | 487 kts | 32° |
| 2026-05-04 14:49 | 51.41798 | 10.72255 | 35857 ft | 487 kts | 34° |
| 2026-05-04 14:49 | 51.44470 | 10.75474 | 36114 ft | 487 kts | 35° |
| 2026-05-04 14:50 | 51.47147 | 10.78800 | 36336 ft | 487 kts | 36° |
| 2026-05-04 14:50 | 51.49812 | 10.82144 | 36596 ft | 486 kts | 36° |
| 2026-05-04 14:50 | 51.52404 | 10.85634 | 36834 ft | 487 kts | 42° |
| 2026-05-04 14:50 | 51.54717 | 10.89624 | 36978 ft | 490 kts | 50° |
| 2026-05-04 14:51 | 51.59039 | 10.98177 | 36983 ft | 494 kts | 50° |
| 2026-05-04 14:51 | 51.63354 | 11.06693 | 36983 ft | 495 kts | 49° |
| 2026-05-04 14:52 | 51.67693 | 11.15291 | 36981 ft | 495 kts | 50° |
| 2026-05-04 14:52 | 51.72018 | 11.23911 | 36983 ft | 494 kts | 50° |
| 2026-05-04 14:53 | 51.76328 | 11.32549 | 36995 ft | 494 kts | 50° |
| 2026-05-04 14:53 | 51.80605 | 11.41147 | 36982 ft | 495 kts | 50° |
| 2026-05-04 14:54 | 51.84917 | 11.49818 | 36978 ft | 495 kts | 50° |
| 2026-05-04 14:54 | 51.89225 | 11.58514 | 36977 ft | 495 kts | 50° |
| 2026-05-04 14:55 | 51.93522 | 11.67245 | 36979 ft | 496 kts | 50° |
| 2026-05-04 14:55 | 51.97822 | 11.75998 | 36987 ft | 496 kts | 50° |
| 2026-05-04 14:56 | 52.02018 | 11.84806 | 36976 ft | 497 kts | 52° |
| 2026-05-04 14:56 | 52.06034 | 11.93953 | 36983 ft | 497 kts | 53° |
| 2026-05-04 14:57 | 52.09982 | 12.03186 | 36983 ft | 497 kts | 53° |
| 2026-05-04 14:57 | 52.13967 | 12.12383 | 36984 ft | 497 kts | 53° |
| 2026-05-04 14:58 | 52.17954 | 12.21484 | 36998 ft | 497 kts | 52° |
| 2026-05-04 14:58 | 52.21964 | 12.30673 | 36994 ft | 497 kts | 53° |
| 2026-05-04 14:59 | 52.25960 | 12.39884 | 36986 ft | 497 kts | 53° |
| 2026-05-04 15:00 | 52.31902 | 12.53682 | 36984 ft | 497 kts | 53° |
| 2026-05-04 15:00 | 52.35871 | 12.62923 | 36993 ft | 497 kts | 53° |
| 2026-05-04 15:01 | 52.41815 | 12.76827 | 36983 ft | 497 kts | 53° |
| 2026-05-04 15:01 | 52.45765 | 12.86116 | 36975 ft | 497 kts | 53° |
| 2026-05-04 15:02 | 52.49680 | 12.95358 | 36973 ft | 497 kts | 53° |
| 2026-05-04 15:02 | 52.54047 | 13.04030 | 37001 ft | 489 kts | 34° |
| 2026-05-04 15:03 | 52.59483 | 13.10698 | 36966 ft | 488 kts | 33° |
| 2026-05-04 15:03 | 52.64951 | 13.17308 | 36974 ft | 488 kts | 32° |
| 2026-05-04 15:04 | 52.70418 | 13.23948 | 36972 ft | 488 kts | 33° |
| 2026-05-04 15:04 | 52.75880 | 13.30615 | 36979 ft | 489 kts | 33° |
| 2026-05-04 15:05 | 52.81302 | 13.37264 | 36980 ft | 488 kts | 33° |
| 2026-05-04 15:05 | 52.86751 | 13.43976 | 36985 ft | 488 kts | 33° |
| 2026-05-04 15:06 | 52.92202 | 13.50684 | 36982 ft | 488 kts | 33° |
| 2026-05-04 15:07 | 53.00372 | 13.60799 | 37000 ft | 489 kts | 33° |
| 2026-05-04 15:07 | 53.05778 | 13.67515 | 36987 ft | 488 kts | 33° |
| 2026-05-04 15:08 | 53.11214 | 13.74290 | 36968 ft | 488 kts | 33° |
| 2026-05-04 15:08 | 53.16638 | 13.81084 | 36963 ft | 488 kts | 33° |
| 2026-05-04 15:09 | 53.22062 | 13.87894 | 36982 ft | 488 kts | 33° |
| 2026-05-04 15:09 | 53.27447 | 13.94681 | 36971 ft | 488 kts | 33° |
| 2026-05-04 15:10 | 53.35572 | 14.04967 | 36955 ft | 488 kts | 33° |
| 2026-05-04 15:11 | 53.43689 | 14.15275 | 36977 ft | 488 kts | 33° |
| 2026-05-04 15:11 | 53.49059 | 14.22118 | 36972 ft | 488 kts | 33° |
| 2026-05-04 15:12 | 53.54459 | 14.29034 | 36964 ft | 488 kts | 34° |
| 2026-05-04 15:12 | 53.59851 | 14.35966 | 36966 ft | 488 kts | 34° |
| 2026-05-04 15:13 | 53.65241 | 14.42925 | 36983 ft | 488 kts | 34° |
| 2026-05-04 15:13 | 53.70595 | 14.49849 | 36975 ft | 489 kts | 34° |
| 2026-05-04 15:14 | 53.75987 | 14.56852 | 36976 ft | 489 kts | 34° |
| 2026-05-04 15:14 | 53.81381 | 14.63863 | 36974 ft | 489 kts | 34° |
| 2026-05-04 15:15 | 53.86768 | 14.70888 | 36995 ft | 489 kts | 34° |
| 2026-05-04 15:15 | 53.92111 | 14.77894 | 36977 ft | 489 kts | 34° |
| 2026-05-04 15:16 | 54.00180 | 14.88521 | 36970 ft | 489 kts | 34° |
| 2026-05-04 15:17 | 54.08246 | 14.99159 | 36979 ft | 489 kts | 34° |
| 2026-05-04 15:17 | 54.16265 | 15.09834 | 36959 ft | 490 kts | 34° |
| 2026-05-04 15:18 | 54.21640 | 15.17018 | 36954 ft | 491 kts | 34° |
| 2026-05-04 15:19 | 54.29709 | 15.27817 | 36994 ft | 491 kts | 35° |
| 2026-05-04 15:19 | 54.37753 | 15.38660 | 36948 ft | 494 kts | 35° |
| 2026-05-04 15:20 | 54.43150 | 15.45958 | 36943 ft | 494 kts | 35° |
| 2026-05-04 15:20 | 54.48551 | 15.53289 | 36940 ft | 495 kts | 35° |
| 2026-05-04 15:21 | 54.53948 | 15.60651 | 36959 ft | 496 kts | 35° |
| 2026-05-04 15:22 | 54.62062 | 15.71747 | 36936 ft | 497 kts | 35° |
| 2026-05-04 15:22 | 54.70148 | 15.82867 | 36927 ft | 498 kts | 35° |
| 2026-05-04 15:23 | 54.75671 | 15.90076 | 36942 ft | 497 kts | 33° |
| 2026-05-04 15:23 | 54.81296 | 15.97073 | 36931 ft | 498 kts | 32° |
| 2026-05-04 15:24 | 54.92483 | 16.11202 | 36917 ft | 499 kts | 33° |
| 2026-05-04 15:25 | 54.98067 | 16.18396 | 36922 ft | 500 kts | 33° |
| 2026-05-04 15:26 | 55.06454 | 16.29202 | 36924 ft | 500 kts | 33° |
| 2026-05-04 15:26 | 55.14799 | 16.40013 | 36926 ft | 500 kts | 33° |
| 2026-05-04 15:27 | 55.23175 | 16.50912 | 36941 ft | 501 kts | 33° |
| 2026-05-04 15:28 | 55.31551 | 16.61879 | 36918 ft | 501 kts | 33° |
| 2026-05-04 15:29 | 55.39929 | 16.72905 | 36912 ft | 502 kts | 33° |
| 2026-05-04 15:30 | 55.59407 | 16.98772 | 36886 ft | 502 kts | 33° |
| 2026-05-04 15:31 | 55.67726 | 17.09905 | 36910 ft | 502 kts | 33° |
| 2026-05-04 15:32 | 55.81255 | 17.29525 | 36885 ft | 506 kts | 43° |
| 2026-05-04 15:34 | 55.93642 | 17.51673 | 36883 ft | 507 kts | 43° |
| 2026-05-04 15:34 | 56.00965 | 17.65290 | 36868 ft | 507 kts | 43° |
| 2026-05-04 15:35 | 56.08273 | 17.78959 | 36869 ft | 507 kts | 43° |
| 2026-05-04 15:36 | 56.15563 | 17.92558 | 36866 ft | 507 kts | 43° |
| 2026-05-04 15:36 | 56.20427 | 18.01715 | 36838 ft | 507 kts | 43° |
| 2026-05-04 15:37 | 56.25260 | 18.10947 | 36846 ft | 507 kts | 44° |
| 2026-05-04 15:37 | 56.30081 | 18.20220 | 36843 ft | 507 kts | 44° |
| 2026-05-04 15:38 | 56.34900 | 18.29519 | 36863 ft | 508 kts | 44° |
| 2026-05-04 15:38 | 56.39686 | 18.38768 | 36852 ft | 508 kts | 44° |
| 2026-05-04 15:39 | 56.44498 | 18.48105 | 36838 ft | 508 kts | 44° |
| 2026-05-04 15:40 | 56.51696 | 18.62169 | 36836 ft | 508 kts | 44° |
| 2026-05-04 15:40 | 56.56458 | 18.71503 | 36856 ft | 508 kts | 44° |
| 2026-05-04 15:41 | 56.61253 | 18.80915 | 36841 ft | 508 kts | 44° |
| 2026-05-04 15:41 | 56.66045 | 18.90348 | 36834 ft | 508 kts | 44° |
| 2026-05-04 15:42 | 56.70822 | 18.99820 | 36822 ft | 508 kts | 44° |
| 2026-05-04 15:42 | 56.75588 | 19.09334 | 36852 ft | 508 kts | 44° |
| 2026-05-04 15:43 | 56.80320 | 19.18801 | 36839 ft | 508 kts | 44° |
| 2026-05-04 15:43 | 56.85083 | 19.28352 | 36831 ft | 509 kts | 45° |
| 2026-05-04 15:44 | 56.89831 | 19.37946 | 36831 ft | 509 kts | 45° |
| 2026-05-04 15:44 | 56.94573 | 19.47553 | 36832 ft | 509 kts | 45° |
| 2026-05-04 15:45 | 56.99313 | 19.57187 | 36840 ft | 509 kts | 45° |
| 2026-05-04 15:45 | 57.04014 | 19.66787 | 36825 ft | 509 kts | 45° |
| 2026-05-04 15:46 | 57.08742 | 19.76466 | 36830 ft | 509 kts | 45° |
| 2026-05-04 15:46 | 57.13465 | 19.86184 | 36821 ft | 509 kts | 45° |
| 2026-05-04 15:47 | 57.18194 | 19.95890 | 36797 ft | 509 kts | 44° |
| 2026-05-04 15:47 | 57.23079 | 20.05175 | 36810 ft | 507 kts | 41° |
| 2026-05-04 15:48 | 57.28092 | 20.14331 | 36809 ft | 507 kts | 41° |
| 2026-05-04 15:48 | 57.35521 | 20.28284 | 36817 ft | 507 kts | 43° |
| 2026-05-04 15:49 | 57.40417 | 20.37709 | 36834 ft | 508 kts | 43° |
| 2026-05-04 15:49 | 57.45284 | 20.47081 | 36820 ft | 508 kts | 43° |
| 2026-05-04 15:50 | 57.50198 | 20.56506 | 36809 ft | 508 kts | 43° |
| 2026-05-04 15:50 | 57.55105 | 20.65955 | 36813 ft | 508 kts | 43° |
| 2026-05-04 15:51 | 57.59998 | 20.75437 | 36810 ft | 508 kts | 43° |
| 2026-05-04 15:51 | 57.64882 | 20.84969 | 36810 ft | 508 kts | 43° |
| 2026-05-04 15:52 | 57.69734 | 20.94453 | 36805 ft | 508 kts | 43° |
| 2026-05-04 15:52 | 57.74612 | 21.04031 | 36797 ft | 508 kts | 43° |
| 2026-05-04 15:53 | 57.79477 | 21.13643 | 36786 ft | 508 kts | 44° |
| 2026-05-04 15:53 | 57.84337 | 21.23261 | 36810 ft | 508 kts | 44° |
| 2026-05-04 15:54 | 57.89160 | 21.32830 | 36803 ft | 508 kts | 44° |
| 2026-05-04 15:54 | 57.94000 | 21.42501 | 36795 ft | 508 kts | 44° |
| 2026-05-04 15:55 | 57.98828 | 21.52210 | 36797 ft | 508 kts | 44° |
| 2026-05-04 15:55 | 58.03303 | 21.62541 | 36791 ft | 510 kts | 51° |
| 2026-05-04 15:56 | 58.07599 | 21.73201 | 36808 ft | 510 kts | 51° |
| 2026-05-04 15:56 | 58.11862 | 21.83819 | 36793 ft | 511 kts | 51° |
| 2026-05-04 15:57 | 58.16149 | 21.94547 | 36784 ft | 511 kts | 51° |
| 2026-05-04 15:57 | 58.20434 | 22.05297 | 36785 ft | 511 kts | 51° |
| 2026-05-04 15:58 | 58.24712 | 22.16074 | 36776 ft | 511 kts | 51° |
| 2026-05-04 15:58 | 58.28964 | 22.26848 | 36069 ft | 516 kts | 51° |
| 2026-05-04 15:59 | 58.31108 | 22.32318 | 35359 ft | 516 kts | 52° |
| 2026-05-04 15:59 | 58.33247 | 22.37782 | 34712 ft | 514 kts | 52° |
| 2026-05-04 15:59 | 58.35382 | 22.43241 | 34069 ft | 514 kts | 52° |
| 2026-05-04 15:59 | 58.37515 | 22.48706 | 33384 ft | 514 kts | 52° |
| 2026-05-04 16:00 | 58.39644 | 22.54174 | 32655 ft | 515 kts | 52° |
| 2026-05-04 16:00 | 58.41779 | 22.59667 | 31935 ft | 516 kts | 52° |
| 2026-05-04 16:00 | 58.43916 | 22.65180 | 31268 ft | 517 kts | 52° |
| 2026-05-04 16:00 | 58.46057 | 22.70711 | 30675 ft | 518 kts | 52° |
| 2026-05-04 16:01 | 58.48169 | 22.76185 | 30067 ft | 519 kts | 52° |
| 2026-05-04 16:01 | 58.50308 | 22.81744 | 29337 ft | 520 kts | 52° |
| 2026-05-04 16:01 | 58.52449 | 22.87318 | 28563 ft | 520 kts | 52° |
| 2026-05-04 16:01 | 58.54591 | 22.92909 | 27814 ft | 521 kts | 52° |
| 2026-05-04 16:02 | 58.56736 | 22.98513 | 27083 ft | 522 kts | 52° |
| 2026-05-04 16:02 | 58.58880 | 23.04131 | 26369 ft | 523 kts | 52° |
| 2026-05-04 16:02 | 58.63171 | 23.15430 | 24994 ft | 525 kts | 52° |
| 2026-05-04 16:03 | 58.65317 | 23.21102 | 24322 ft | 526 kts | 52° |
| 2026-05-04 16:03 | 58.67434 | 23.26704 | 23685 ft | 525 kts | 52° |
| 2026-05-04 16:03 | 58.69570 | 23.32363 | 23008 ft | 521 kts | 52° |
| 2026-05-04 16:03 | 58.71684 | 23.37981 | 22267 ft | 516 kts | 52° |
| 2026-05-04 16:04 | 58.73773 | 23.43553 | 21541 ft | 511 kts | 52° |
| 2026-05-04 16:04 | 58.77886 | 23.54558 | 20332 ft | 502 kts | 52° |
| 2026-05-04 16:04 | 58.79915 | 23.60006 | 19751 ft | 498 kts | 52° |
| 2026-05-04 16:05 | 58.81927 | 23.65418 | 19179 ft | 494 kts | 52° |
| 2026-05-04 16:05 | 58.83921 | 23.70792 | 18623 ft | 491 kts | 52° |
| 2026-05-04 16:05 | 58.87833 | 23.81378 | 17502 ft | 484 kts | 53° |
| 2026-05-04 16:06 | 58.89773 | 23.86651 | 16878 ft | 479 kts | 53° |
| 2026-05-04 16:06 | 58.94832 | 24.00455 | 15310 ft | 466 kts | 52° |
| 2026-05-04 16:07 | 58.97305 | 24.07271 | 14544 ft | 460 kts | 53° |
| 2026-05-04 16:07 | 59.02281 | 24.22802 | 12894 ft | 448 kts | 58° |
| 2026-05-04 16:08 | 59.03833 | 24.28018 | 12288 ft | 445 kts | 58° |
| 2026-05-04 16:08 | 59.08461 | 24.43346 | 10925 ft | 421 kts | 58° |
| 2026-05-04 16:09 | 59.11348 | 24.52721 | 10578 ft | 388 kts | 57° |
| 2026-05-04 16:09 | 59.14028 | 24.61438 | 10237 ft | 363 kts | 57° |
| 2026-05-04 16:10 | 59.16503 | 24.69539 | 10068 ft | 337 kts | 57° |
| 2026-05-04 16:11 | 59.20028 | 24.81137 | 9544 ft | 329 kts | 57° |
| 2026-05-04 16:11 | 59.21185 | 24.84970 | 9165 ft | 327 kts | 57° |
| 2026-05-04 16:12 | 59.24611 | 24.96354 | 8015 ft | 320 kts | 57° |
| 2026-05-04 16:12 | 59.27929 | 25.07396 | 7032 ft | 308 kts | 58° |
| 2026-05-04 16:13 | 59.30038 | 25.14452 | 6519 ft | 292 kts | 58° |
| 2026-05-04 16:13 | 59.32228 | 25.20785 | 5823 ft | 270 kts | 37° |
| 2026-05-04 16:14 | 59.35401 | 25.23735 | 5106 ft | 246 kts | 0° |
| 2026-05-04 16:14 | 59.38676 | 25.23256 | 4290 ft | 229 kts | 336° |
| 2026-05-04 16:15 | 59.41180 | 25.16946 | 3051 ft | 196 kts | 270° |
| 2026-05-04 16:16 | 59.41206 | 25.11925 | 2724 ft | 167 kts | 270° |
| 2026-05-04 16:16 | 59.41238 | 25.05613 | 2109 ft | 153 kts | 270° |
| 2026-05-04 16:17 | 59.41257 | 25.01430 | 1694 ft | 153 kts | 271° |
| 2026-05-04 16:18 | 59.41281 | 24.95830 | 1107 ft | 128 kts | 270° |
| 2026-05-04 16:18 | 59.41288 | 24.94085 | 932 ft | 127 kts | 270° |
| 2026-05-04 16:19 | 59.41310 | 24.88888 | 465 ft | 127 kts | 269° |
| 2026-05-04 16:19 | 59.41321 | 24.85414 | 158 ft | 125 kts | 268° |
| 2026-05-04 16:20 | 59.41327 | 24.82281 | 139 ft | 47 kts | 270° |
| 2026-05-04 16:20 | 59.41329 | 24.81148 | 137 ft | 38 kts | 270° |
| 2026-05-04 16:21 | 59.41501 | 24.80492 | 138 ft | 7 kts | 14° |
| 2026-05-04 16:22 | 59.41587 | 24.80511 | 138 ft | 6 kts | 0° |
| 2026-05-04 16:22 | 59.41697 | 24.80488 | 138 ft | 8 kts | 335° |
| 2026-05-04 16:23 | 59.41746 | 24.80286 | 138 ft | 2 kts | 278° |
| 2026-05-04 16:24 | 59.41713 | 24.80192 | 138 ft | 2 kts | 179° |
| 2026-05-04 16:25 | 59.41688 | 24.80193 | 138 ft | 0 kts | 179° |